createdAt,value
2018-05-01T00:01:09.425Z,49.80
2018-05-01T00:03:37.054Z,50.10
2018-05-01T00:06:04.710Z,50.30
2018-05-01T00:08:32.324Z,50.00
2018-05-01T00:11:00.711Z,50.30
2018-05-01T00:13:28.362Z,50.20
2018-05-01T00:15:56.751Z,50.30
2018-05-01T00:18:25.133Z,50.40
2018-05-01T00:20:53.492Z,50.70
2018-05-01T00:23:21.122Z,50.80
2018-05-01T00:25:48.716Z,50.10
2018-05-01T00:28:16.336Z,50.30
2018-05-01T00:30:43.925Z,50.10
2018-05-01T00:33:12.295Z,49.50
2018-05-01T00:35:39.922Z,49.90
2018-05-01T00:38:07.540Z,50.70
2018-05-01T00:40:35.916Z,49.60
2018-05-01T00:43:04.322Z,50.00
2018-05-01T00:45:31.949Z,49.30
2018-05-01T00:47:59.574Z,49.20
2018-05-01T00:50:27.164Z,50.00
2018-05-01T00:52:54.758Z,48.90
2018-05-01T00:55:23.167Z,48.90
2018-05-01T00:57:50.778Z,48.90
2018-05-01T01:00:19.153Z,49.30
2018-05-01T01:02:46.707Z,48.80
2018-05-01T01:05:14.328Z,49.00
2018-05-01T01:07:41.956Z,49.00
2018-05-01T01:10:09.584Z,49.10
2018-05-01T01:12:37.174Z,49.10
2018-05-01T01:15:05.528Z,48.40
2018-05-01T01:17:33.151Z,48.40
2018-05-01T01:20:00.750Z,48.80
2018-05-01T01:22:28.344Z,48.60
2018-05-01T01:24:56.862Z,48.70
2018-05-01T01:27:24.453Z,48.90
2018-05-01T01:29:52.071Z,48.60
2018-05-01T01:32:19.675Z,48.60
2018-05-01T01:34:47.297Z,48.10
2018-05-01T01:37:14.864Z,48.10
2018-05-01T01:39:41.960Z,48.10
2018-05-01T01:42:09.817Z,48.00
2018-05-01T01:44:36.883Z,48.00
2018-05-01T01:47:04.795Z,48.00
2018-05-01T01:49:32.131Z,48.00
2018-05-01T01:51:59.241Z,48.00
2018-05-01T01:54:26.334Z,48.10
2018-05-01T01:56:53.450Z,48.40
2018-05-01T01:59:21.561Z,48.40
2018-05-01T02:01:49.688Z,48.40
2018-05-01T02:04:17.553Z,48.80
2018-05-01T02:06:44.680Z,48.70
2018-05-01T02:09:11.788Z,48.90
2018-05-01T02:11:38.886Z,49.00
2018-05-01T02:14:06.022Z,48.90
2018-05-01T02:16:33.107Z,48.50
2018-05-01T02:19:00.990Z,48.70
2018-05-01T02:21:28.170Z,48.70
2018-05-01T02:23:55.288Z,49.10
2018-05-01T02:26:22.392Z,49.10
2018-05-01T02:28:49.499Z,49.10
2018-05-01T02:31:16.595Z,49.30
2018-05-01T02:33:43.712Z,49.60
2018-05-01T02:36:10.843Z,49.70
2018-05-01T02:38:37.972Z,49.70
2018-05-01T02:41:05.833Z,49.80
2018-05-01T02:43:33.235Z,49.70
2018-05-01T02:46:00.340Z,49.70
2018-05-01T02:48:28.204Z,50.10
2018-05-01T02:50:56.085Z,50.30
2018-05-01T02:53:23.223Z,50.30
2018-05-01T02:55:51.083Z,50.70
2018-05-01T02:58:19.000Z,51.30
2018-05-01T03:00:46.069Z,50.70
2018-05-01T03:03:13.169Z,50.90
2018-05-01T03:05:40.299Z,51.00
2018-05-01T03:08:08.198Z,51.30
2018-05-01T03:10:35.308Z,51.30
2018-05-01T03:13:02.408Z,51.50
2018-05-01T03:15:29.535Z,51.30
2018-05-01T03:17:56.650Z,51.50
2018-05-01T03:20:24.547Z,51.80
2018-05-01T03:22:51.721Z,51.60
2018-05-01T03:25:18.992Z,51.60
2018-05-01T03:27:46.112Z,51.80
2018-05-01T03:30:13.205Z,51.80
2018-05-01T03:32:40.495Z,51.80
2018-05-01T03:35:07.553Z,51.90
2018-05-01T03:37:34.692Z,52.30
2018-05-01T03:40:02.596Z,52.20
2018-05-01T03:42:29.741Z,52.20
2018-05-01T03:44:56.844Z,52.20
2018-05-01T03:47:23.993Z,52.40
2018-05-01T03:49:51.884Z,52.70
2018-05-01T03:52:19.805Z,53.10
2018-05-01T03:54:46.931Z,53.10
2018-05-01T03:57:14.055Z,52.80
2018-05-01T03:59:41.187Z,52.80
2018-05-01T04:02:09.269Z,53.10
2018-05-01T04:04:36.381Z,53.10
2018-05-01T04:07:03.481Z,53.10
2018-05-01T04:09:30.595Z,53.30
2018-05-01T04:11:57.663Z,53.60
2018-05-01T04:14:25.553Z,54.00
2018-05-01T04:16:52.634Z,54.00
2018-05-01T04:19:19.761Z,54.90
2018-05-01T04:21:46.853Z,54.00
2018-05-01T04:24:13.995Z,54.70
2018-05-01T04:26:51.808Z,55.40
2018-05-01T04:29:19.700Z,56.60
2018-05-01T04:31:47.559Z,56.80
2018-05-01T04:34:15.453Z,57.10
2018-05-01T04:36:42.628Z,57.10
2018-05-01T04:39:09.795Z,57.40
2018-05-01T04:41:37.676Z,58.20
2018-05-01T04:44:04.823Z,58.20
2018-05-01T04:46:31.934Z,58.40
2018-05-01T04:48:58.978Z,58.20
2018-05-01T04:51:26.133Z,58.20
2018-05-01T04:53:53.199Z,58.40
2018-05-01T04:56:20.319Z,58.50
2018-05-01T04:58:47.417Z,58.10
2018-05-01T05:01:14.530Z,58.40
2018-05-01T05:03:41.670Z,58.50
2018-05-01T05:06:08.811Z,58.40
2018-05-01T05:08:35.931Z,58.10
2018-05-01T05:11:03.810Z,58.30
2018-05-01T05:13:30.934Z,58.20
2018-05-01T05:15:58.028Z,58.60
2018-05-01T05:18:25.146Z,58.60
2018-05-01T05:20:53.483Z,59.20
2018-05-01T05:23:20.815Z,59.20
2018-05-01T05:25:47.907Z,59.10
2018-05-01T05:28:15.052Z,59.30
2018-05-01T05:30:42.938Z,59.00
2018-05-01T05:33:10.048Z,59.00
2018-05-01T05:35:37.327Z,59.10
2018-05-01T05:38:04.447Z,58.90
2018-05-01T05:40:31.528Z,59.00
2018-05-01T05:42:58.716Z,58.50
2018-05-01T05:48:25.004Z,58.60
2018-05-01T05:50:52.117Z,58.40
2018-05-01T05:53:19.205Z,58.60
2018-05-01T05:55:46.273Z,58.50
2018-05-01T05:58:13.486Z,58.10
2018-05-01T06:00:40.588Z,58.10
2018-05-01T06:03:08.470Z,57.80
2018-05-01T06:05:36.916Z,57.60
2018-05-01T06:08:04.024Z,57.60
2018-05-01T06:10:31.138Z,57.80
2018-05-01T06:12:59.016Z,58.40
2018-05-01T06:15:30.982Z,58.20
2018-05-01T06:17:58.103Z,58.20
2018-05-01T06:20:25.966Z,58.40
2018-05-01T06:22:53.078Z,58.30
2018-05-01T06:25:21.190Z,58.10
2018-05-01T06:27:48.298Z,58.00
2018-05-01T06:30:16.444Z,57.90
2018-05-01T06:32:43.526Z,58.30
2018-05-01T06:35:10.636Z,58.40
2018-05-01T06:37:37.754Z,57.90
2018-05-01T06:40:04.882Z,58.00
2018-05-01T06:42:32.117Z,57.80
2018-05-01T06:44:59.218Z,57.40
2018-05-01T06:47:27.338Z,57.60
2018-05-01T06:49:54.458Z,57.60
2018-05-01T06:52:21.564Z,57.60
2018-05-01T06:54:48.788Z,57.90
2018-05-01T06:57:15.894Z,58.00
2018-05-01T06:59:43.843Z,57.50
2018-05-01T07:02:12.147Z,57.40
2018-05-01T07:04:39.268Z,57.30
2018-05-01T07:07:07.186Z,57.20
2018-05-01T07:09:34.564Z,57.10
2018-05-01T07:12:01.726Z,57.10
2018-05-01T07:14:28.858Z,57.00
2018-05-01T07:16:56.332Z,56.60
2018-05-01T07:19:23.469Z,57.00
2018-05-01T07:21:50.661Z,56.90
2018-05-01T07:24:18.646Z,56.50
2018-05-01T07:26:45.740Z,56.50
2018-05-01T07:29:12.847Z,57.10
2018-05-01T07:31:39.992Z,55.70
2018-05-01T07:34:07.073Z,55.50
2018-05-01T07:36:34.224Z,56.10
2018-05-01T07:39:01.383Z,56.40
2018-05-01T07:41:28.505Z,56.30
2018-05-01T07:43:55.622Z,56.40
2018-05-01T07:46:23.513Z,57.00
2018-05-01T07:48:50.627Z,57.00
2018-05-01T07:51:17.727Z,57.60
2018-05-01T07:53:44.817Z,57.00
2018-05-01T07:56:11.926Z,57.10
2018-05-01T07:58:39.086Z,57.50
2018-05-01T08:01:06.211Z,57.60
2018-05-01T08:03:33.345Z,57.80
2018-05-01T08:06:01.213Z,58.70
2018-05-01T08:08:28.334Z,58.70
2018-05-01T08:10:55.436Z,58.90
2018-05-01T08:13:22.568Z,58.90
2018-05-01T08:15:49.642Z,58.50
2018-05-01T08:18:16.770Z,58.10
2018-05-01T08:20:43.909Z,58.50
2018-05-01T08:23:14.046Z,56.40
2018-05-01T08:25:41.146Z,55.90
2018-05-01T08:28:09.062Z,56.40
2018-05-01T08:30:36.209Z,56.40
2018-05-01T08:33:03.272Z,56.60
2018-05-01T08:35:30.720Z,56.30
2018-05-01T08:37:57.817Z,55.90
2018-05-01T08:40:24.968Z,56.00
2018-05-01T08:42:52.071Z,55.50
2018-05-01T08:45:19.339Z,54.70
2018-05-01T08:47:46.401Z,55.00
2018-05-01T08:50:13.474Z,55.30
2018-05-01T08:52:40.575Z,56.10
2018-05-01T08:55:07.659Z,55.40
2018-05-01T08:57:34.783Z,54.70
2018-05-01T09:00:01.932Z,53.20
2018-05-01T09:02:29.063Z,52.60
2018-05-01T09:04:56.153Z,52.10
2018-05-01T09:07:23.260Z,51.80
2018-05-01T09:09:50.380Z,52.40
2018-05-01T09:12:18.248Z,52.10
2018-05-01T09:14:46.454Z,52.00
2018-05-01T09:17:13.569Z,52.00
2018-05-01T09:19:41.453Z,53.30
2018-05-01T09:22:08.558Z,53.30
2018-05-01T09:24:35.736Z,53.60
2018-05-01T09:27:03.650Z,53.10
2018-05-01T09:29:30.740Z,53.10
2018-05-01T09:31:57.832Z,52.80
2018-05-01T09:34:24.952Z,52.30
2018-05-01T09:36:52.862Z,51.50
2018-05-01T09:39:20.027Z,51.40
2018-05-01T09:41:47.113Z,51.30
2018-05-01T09:44:14.842Z,50.70
2018-05-01T09:46:41.974Z,51.40
2018-05-01T09:49:09.098Z,51.10
2018-05-01T09:51:36.203Z,51.20
2018-05-01T09:54:03.817Z,51.20
2018-05-01T09:56:31.522Z,51.50
2018-05-01T09:58:59.163Z,51.40
2018-05-01T10:01:26.805Z,51.40
2018-05-01T10:03:54.588Z,52.10
2018-05-01T10:06:22.161Z,51.10
2018-05-01T10:08:50.333Z,51.90
2018-05-01T10:11:18.738Z,51.30
2018-05-01T10:13:46.359Z,51.20
2018-05-01T10:16:13.925Z,49.80
2018-05-01T10:18:41.465Z,49.90
2018-05-01T10:21:09.108Z,48.60
2018-05-01T10:23:36.769Z,48.60
2018-05-01T10:26:05.147Z,46.50
2018-05-01T10:28:33.559Z,47.00
2018-05-01T10:31:01.181Z,47.10
2018-05-01T10:33:28.799Z,46.80
2018-05-01T10:35:56.399Z,46.30
2018-05-01T10:38:24.873Z,45.90
2018-05-01T10:40:52.490Z,45.90
2018-05-01T10:43:20.167Z,45.60
2018-05-01T10:45:47.840Z,46.50
2018-05-01T10:48:15.429Z,46.10
2018-05-01T10:50:43.053Z,45.70
2018-05-01T10:53:10.777Z,46.00
2018-05-01T10:55:38.373Z,44.90
2018-05-01T10:58:06.280Z,45.30
2018-05-01T11:00:33.925Z,45.30
2018-05-01T11:03:01.790Z,45.50
2018-05-01T11:05:29.341Z,45.60
2018-05-01T11:07:57.061Z,46.30
2018-05-01T11:10:24.750Z,46.40
2018-05-01T11:12:52.381Z,45.80
2018-05-01T11:15:20.721Z,44.40
2018-05-01T11:17:48.358Z,44.40
2018-05-01T11:20:16.221Z,45.70
2018-05-01T11:22:44.281Z,45.20
2018-05-01T11:25:12.066Z,46.40
2018-05-01T11:27:39.711Z,45.70
2018-05-01T11:30:07.409Z,44.00
2018-05-01T11:32:35.034Z,45.30
2018-05-01T11:35:02.718Z,43.60
2018-05-01T11:37:30.343Z,44.00
2018-05-01T11:39:59.571Z,43.20
2018-05-01T11:42:29.515Z,44.00
2018-05-01T11:44:57.541Z,43.00
2018-05-01T11:47:25.187Z,43.30
2018-05-01T11:49:52.849Z,43.30
2018-05-01T11:52:20.456Z,43.00
2018-05-01T11:54:51.863Z,43.30
2018-05-01T11:57:19.691Z,43.30
2018-05-01T11:59:48.263Z,43.50
2018-05-01T12:02:15.883Z,43.50
2018-05-01T12:04:43.465Z,42.50
2018-05-01T12:07:11.067Z,42.20
2018-05-01T12:09:38.699Z,42.10
2018-05-01T12:12:06.365Z,42.90
2018-05-01T12:14:33.980Z,42.90
2018-05-01T12:17:01.598Z,42.90
2018-05-01T12:19:29.228Z,41.60
2018-05-01T12:21:57.604Z,39.70
2018-05-01T12:24:25.975Z,37.60
2018-05-01T12:26:53.560Z,37.60
2018-05-01T12:29:21.684Z,36.80
2018-05-01T12:31:49.488Z,34.60
2018-05-01T12:34:17.874Z,31.70
2018-05-01T12:36:45.582Z,31.60
2018-05-01T12:39:13.133Z,31.30
2018-05-01T12:41:40.709Z,32.10
2018-05-01T12:44:08.327Z,31.10
2018-05-01T12:46:35.925Z,32.40
2018-05-01T12:49:03.776Z,33.30
2018-05-01T12:51:31.374Z,32.40
2018-05-01T12:54:00.494Z,31.00
2018-05-01T12:56:28.884Z,28.60
2018-05-01T12:58:56.536Z,28.60
2018-05-01T13:01:24.911Z,27.50
2018-05-01T13:03:53.226Z,28.40
2018-05-01T13:06:20.843Z,28.40
2018-05-01T13:08:49.180Z,30.00
2018-05-01T13:11:16.776Z,30.00
2018-05-01T13:13:45.137Z,29.80
2018-05-01T13:16:12.750Z,29.70
2018-05-01T13:18:40.532Z,30.00
2018-05-01T13:21:08.138Z,30.80
2018-05-01T13:23:35.775Z,31.80
2018-05-01T13:26:03.390Z,31.30
2018-05-01T13:28:31.053Z,32.30
2018-05-01T13:30:58.662Z,31.30
2018-05-01T13:33:26.176Z,30.00
2018-05-01T13:35:53.726Z,30.00
2018-05-01T13:38:21.996Z,30.00
2018-05-01T13:40:50.279Z,31.00
2018-05-01T13:43:18.540Z,31.30
2018-05-01T13:45:46.850Z,31.90
2018-05-01T13:48:14.392Z,31.20
2018-05-01T13:50:42.732Z,30.70
2018-05-01T13:53:10.267Z,30.60
2018-05-01T13:55:37.808Z,32.50
2018-05-01T13:58:05.340Z,32.50
2018-05-01T14:00:32.872Z,33.70
2018-05-01T14:03:00.420Z,35.20
2018-05-01T14:05:27.925Z,36.50
2018-05-01T14:07:56.293Z,35.50
2018-05-01T14:10:24.679Z,35.30
2018-05-01T14:12:52.298Z,35.30
2018-05-01T14:15:19.868Z,32.20
2018-05-01T14:17:47.453Z,31.30
2018-05-01T14:20:15.799Z,31.00
2018-05-01T14:22:43.427Z,31.10
2018-05-01T14:25:11.065Z,31.00
2018-05-01T14:27:39.462Z,31.30
2018-05-01T14:30:07.125Z,31.10
2018-05-01T14:32:34.698Z,31.60
2018-05-01T14:35:02.277Z,31.50
2018-05-01T14:37:29.845Z,32.30
2018-05-01T14:39:57.458Z,33.10
2018-05-01T14:42:25.030Z,33.70
2018-05-01T14:44:52.661Z,35.20
2018-05-01T14:47:21.045Z,31.20
2018-05-01T14:49:48.815Z,31.20
2018-05-01T14:52:16.455Z,32.20
2018-05-01T14:54:44.095Z,31.90
2018-05-01T14:57:12.475Z,31.50
2018-05-01T14:59:40.081Z,31.30
2018-05-01T15:02:07.694Z,32.10
2018-05-01T15:04:36.205Z,33.00
2018-05-01T15:07:04.608Z,30.80
2018-05-01T15:09:32.155Z,30.40
2018-05-01T15:12:00.554Z,29.80
2018-05-01T15:14:28.141Z,29.80
2018-05-01T15:16:55.764Z,30.50
2018-05-01T15:19:23.533Z,30.00
2018-05-01T15:21:51.078Z,30.50
2018-05-01T15:24:18.710Z,30.80
2018-05-01T15:26:46.345Z,30.50
2018-05-01T15:29:13.944Z,31.60
2018-05-01T15:31:41.568Z,32.00
2018-05-01T15:34:09.141Z,31.90
2018-05-01T15:36:36.893Z,31.40
2018-05-01T15:39:04.499Z,31.60
2018-05-01T15:41:32.915Z,32.20
2018-05-01T15:44:00.525Z,32.20
2018-05-01T15:46:28.173Z,32.00
2018-05-01T15:48:56.459Z,32.80
2018-05-01T15:51:24.027Z,33.20
2018-05-01T15:53:51.693Z,33.70
2018-05-01T15:59:26.287Z,34.30
2018-05-01T16:01:53.863Z,35.10
2018-05-01T16:04:21.485Z,35.30
2018-05-01T16:06:49.114Z,34.40
2018-05-01T16:09:16.751Z,34.80
2018-05-01T16:11:44.387Z,34.70
2018-05-01T16:14:12.076Z,35.30
2018-05-01T16:16:40.852Z,35.60
2018-05-01T16:19:08.706Z,36.30
2018-05-01T16:21:36.425Z,36.70
2018-05-01T16:24:04.862Z,37.20
2018-05-01T16:26:33.050Z,37.10
2018-05-01T16:29:00.674Z,36.90
2018-05-01T16:31:28.364Z,37.80
2018-05-01T16:33:55.994Z,37.60
2018-05-01T16:36:23.600Z,37.60
2018-05-01T16:38:51.218Z,37.60
2018-05-01T16:41:19.004Z,38.10
2018-05-01T16:43:46.616Z,37.50
2018-05-01T16:46:14.978Z,38.60
2018-05-01T16:48:42.608Z,38.60
2018-05-01T16:51:10.241Z,39.90
2018-05-01T16:53:37.828Z,40.40
2018-05-01T16:56:05.483Z,40.30
2018-05-01T16:58:34.715Z,41.50
2018-05-01T17:01:02.417Z,41.50
2018-05-01T17:03:30.210Z,40.00
2018-05-01T17:05:59.360Z,40.90
2018-05-01T17:08:26.936Z,40.90
2018-05-01T17:10:54.556Z,40.70
2018-05-01T17:13:23.011Z,43.50
2018-05-01T17:15:51.625Z,43.50
2018-05-01T17:18:20.028Z,41.70
2018-05-01T17:20:47.628Z,41.70
2018-05-01T17:23:15.220Z,42.80
2018-05-01T17:25:42.860Z,42.70
2018-05-01T17:28:10.580Z,42.80
2018-05-01T17:30:38.162Z,43.90
2018-05-01T17:33:06.863Z,43.50
2018-05-01T17:35:34.501Z,44.30
2018-05-01T17:38:02.874Z,43.90
2018-05-01T17:40:30.484Z,43.80
2018-05-01T17:42:59.419Z,43.60
2018-05-01T17:45:27.253Z,44.20
2018-05-01T17:47:54.826Z,43.70
2018-05-01T17:50:22.440Z,44.90
2018-05-01T17:52:50.091Z,44.50
2018-05-01T17:55:17.758Z,44.00
2018-05-01T17:57:45.379Z,44.30
2018-05-01T18:00:12.998Z,44.70
2018-05-01T18:02:40.832Z,46.00
2018-05-01T18:05:08.453Z,46.00
2018-05-01T18:07:37.636Z,46.00
2018-05-01T18:10:05.242Z,46.00
2018-05-01T18:12:33.719Z,46.00
2018-05-01T18:15:01.817Z,46.00
2018-05-01T18:17:31.438Z,45.50
2018-05-01T18:19:59.075Z,45.80
2018-05-01T18:22:27.710Z,45.30
2018-05-01T18:24:55.833Z,45.80
2018-05-01T18:27:24.208Z,46.30
2018-05-01T18:29:51.832Z,46.30
2018-05-01T18:32:21.417Z,46.50
2018-05-01T18:34:51.746Z,46.00
2018-05-01T18:37:21.134Z,46.00
2018-05-01T18:39:48.768Z,46.00
2018-05-01T18:42:17.894Z,45.90
2018-05-01T18:44:49.964Z,45.80
2018-05-01T18:47:18.320Z,46.80
2018-05-01T18:49:46.929Z,46.60
2018-05-01T18:52:32.335Z,46.60
2018-05-01T18:55:00.732Z,46.60
2018-05-01T18:57:28.393Z,46.60
2018-05-01T18:59:55.993Z,46.90
2018-05-01T19:02:23.795Z,46.80
2018-05-01T19:04:51.514Z,47.20
2018-05-01T19:07:19.210Z,47.20
2018-05-01T19:09:46.886Z,46.10
2018-05-01T19:12:15.416Z,47.20
2018-05-01T19:14:43.144Z,47.20
2018-05-01T19:17:10.848Z,46.90
2018-05-01T19:19:38.484Z,47.50
2018-05-01T19:22:06.092Z,47.50
2018-05-01T19:24:33.748Z,47.50
2018-05-01T19:27:01.376Z,47.80
2018-05-01T19:29:29.146Z,47.60
2018-05-01T19:31:56.777Z,47.60
2018-05-01T19:34:24.401Z,48.20
2018-05-01T19:36:52.036Z,48.00
2018-05-01T19:39:19.674Z,48.20
2018-05-01T19:41:47.282Z,48.50
2018-05-01T19:44:14.928Z,48.00
2018-05-01T19:46:42.553Z,47.80
2018-05-01T19:49:10.188Z,47.60
2018-05-01T19:51:37.877Z,47.50
2018-05-01T19:54:05.458Z,47.40
2018-05-01T19:56:33.127Z,47.40
2018-05-01T19:59:00.664Z,47.70
2018-05-01T20:01:28.315Z,48.80
2018-05-01T20:03:56.827Z,49.60
2018-05-01T20:06:24.426Z,49.90
2018-05-01T20:08:52.073Z,50.40
2018-05-01T20:11:19.649Z,50.30
2018-05-01T20:13:47.249Z,51.20
2018-05-01T20:16:14.881Z,51.80
2018-05-01T20:18:42.452Z,51.60
2018-05-01T20:21:10.805Z,52.40
2018-05-01T20:23:38.460Z,53.00
2018-05-01T20:26:06.111Z,53.10
2018-05-01T20:28:33.711Z,54.00
2018-05-01T20:31:05.669Z,54.90
2018-05-01T20:33:34.047Z,55.10
2018-05-01T20:36:01.628Z,55.00
2018-05-01T20:38:29.262Z,55.40
2018-05-01T20:40:57.621Z,55.90
2018-05-01T20:43:25.257Z,55.90
2018-05-01T20:45:53.847Z,57.10
2018-05-01T20:48:21.425Z,56.90
2018-05-01T20:50:49.001Z,56.90
2018-05-01T20:53:16.630Z,57.20
2018-05-01T20:55:44.209Z,57.30
2018-05-01T20:58:11.818Z,57.50
2018-05-01T21:00:39.390Z,58.10
2018-05-01T21:03:07.008Z,58.00
2018-05-01T21:05:34.655Z,58.30
2018-05-01T21:08:02.261Z,58.60
2018-05-01T21:10:29.937Z,58.60
2018-05-01T21:12:57.497Z,59.40
2018-05-01T21:15:25.129Z,59.60
2018-05-01T21:17:53.459Z,59.90
2018-05-01T21:20:21.062Z,59.90
2018-05-01T21:22:48.671Z,60.20
2018-05-01T21:25:16.237Z,60.40
2018-05-01T21:27:45.265Z,61.40
2018-05-01T21:30:12.871Z,61.40
2018-05-01T21:32:40.467Z,61.30
2018-05-01T21:35:08.089Z,62.10
2018-05-01T21:37:35.715Z,62.40
2018-05-01T21:40:04.135Z,63.30
2018-05-01T21:42:31.738Z,62.90
2018-05-01T21:44:59.361Z,63.70
2018-05-01T21:47:28.415Z,64.10
2018-05-01T21:49:56.837Z,64.30
2018-05-01T21:52:25.522Z,64.20
2018-05-01T21:54:53.195Z,64.10
2018-05-01T21:57:20.910Z,64.30
2018-05-01T21:59:49.163Z,65.50
2018-05-01T22:02:16.772Z,65.50
2018-05-01T22:04:44.387Z,66.30
2018-05-01T22:07:12.725Z,66.40
2018-05-01T22:09:40.323Z,66.40
2018-05-01T22:12:08.691Z,67.00
2018-05-01T22:14:36.291Z,67.00
2018-05-01T22:17:03.925Z,66.80
2018-05-01T22:19:31.513Z,66.90
2018-05-01T22:21:59.887Z,68.00
2018-05-01T22:24:28.231Z,67.90
2018-05-01T22:26:55.826Z,67.80
2018-05-01T22:29:24.186Z,68.50
2018-05-01T22:31:51.791Z,68.50
2018-05-01T22:34:19.404Z,68.30
2018-05-01T22:36:47.009Z,68.30
2018-05-01T22:39:14.656Z,68.40
2018-05-01T22:41:42.290Z,68.90
2018-05-01T22:44:09.907Z,69.60
2018-05-01T22:46:37.542Z,69.90
2018-05-01T22:49:05.892Z,70.20
2018-05-01T22:51:33.470Z,70.20
2018-05-01T22:54:01.856Z,70.80
2018-05-01T22:56:29.449Z,70.80
2018-05-01T22:58:57.064Z,70.70
2018-05-01T23:01:25.454Z,70.80
2018-05-01T23:03:53.804Z,71.40
2018-05-01T23:06:21.434Z,71.40
2018-05-01T23:08:49.065Z,72.20
2018-05-01T23:11:16.660Z,72.40
2018-05-01T23:13:44.321Z,72.10
2018-05-01T23:16:11.914Z,72.00
2018-05-01T23:18:39.547Z,72.10
2018-05-01T23:21:07.146Z,72.10
2018-05-01T23:23:34.739Z,72.10
2018-05-01T23:26:02.339Z,72.60
2018-05-01T23:28:29.911Z,72.20
2018-05-01T23:30:57.525Z,72.60
2018-05-01T23:33:25.095Z,72.50
2018-05-01T23:35:52.638Z,72.80
2018-05-01T23:38:20.242Z,73.30
2018-05-01T23:40:47.875Z,73.20
2018-05-01T23:43:15.472Z,73.10
2018-05-01T23:45:43.090Z,73.30
2018-05-01T23:48:10.679Z,73.30
2018-05-01T23:50:38.258Z,73.50
2018-05-01T23:53:05.822Z,73.50
2018-05-01T23:55:33.604Z,73.50
2018-05-01T23:58:02.902Z,74.30
